sensor_id;sensor_type;location;lat;lon;timestamp;P1;durP1;ratioP1;P2;durP2;ratioP2
45354;SDS011;31091;48.758;9.150;2024-01-16T00:02:20;6.72;;;3.30;;
45354;SDS011;31091;48.758;9.150;2024-01-16T00:05:06;8.75;;;4.03;;
45354;SDS011;31091;48.758;9.150;2024-01-16T00:07:51;9.02;;;3.90;;
45354;SDS011;31091;48.758;9.150;2024-01-16T00:10:36;7.18;;;3.75;;
45354;SDS011;31091;48.758;9.150;2024-01-16T00:13:22;7.38;;;4.00;;
45354;SDS011;31091;48.758;9.150;2024-01-16T00:16:07;8.55;;;3.88;;
45354;SDS011;31091;48.758;9.150;2024-01-16T00:18:52;7.57;;;3.72;;
45354;SDS011;31091;48.758;9.150;2024-01-16T00:21:38;6.63;;;3.63;;
45354;SDS011;31091;48.758;9.150;2024-01-16T00:24:23;7.75;;;3.97;;
45354;SDS011;31091;48.758;9.150;2024-01-16T00:27:08;8.48;;;3.72;;
45354;SDS011;31091;48.758;9.150;2024-01-16T00:29:54;8.95;;;3.92;;
45354;SDS011;31091;48.758;9.150;2024-01-16T00:32:39;10.27;;;4.35;;
45354;SDS011;31091;48.758;9.150;2024-01-16T00:35:24;8.77;;;3.67;;
45354;SDS011;31091;48.758;9.150;2024-01-16T00:38:09;9.48;;;4.28;;
45354;SDS011;31091;48.758;9.150;2024-01-16T00:40:55;7.55;;;3.60;;
45354;SDS011;31091;48.758;9.150;2024-01-16T00:43:40;8.57;;;3.58;;
45354;SDS011;31091;48.758;9.150;2024-01-16T00:46:25;7.60;;;3.83;;
45354;SDS011;31091;48.758;9.150;2024-01-16T00:49:11;8.75;;;3.70;;
45354;SDS011;31091;48.758;9.150;2024-01-16T00:51:56;10.27;;;3.88;;
45354;SDS011;31091;48.758;9.150;2024-01-16T00:54:42;5.22;;;3.30;;
45354;SDS011;31091;48.758;9.150;2024-01-16T00:57:27;7.78;;;3.53;;
45354;SDS011;31091;48.758;9.150;2024-01-16T01:00:13;8.00;;;3.55;;
45354;SDS011;31091;48.758;9.150;2024-01-16T01:02:58;7.10;;;3.65;;
45354;SDS011;31091;48.758;9.150;2024-01-16T01:05:43;6.60;;;3.78;;
45354;SDS011;31091;48.758;9.150;2024-01-16T01:08:28;6.35;;;2.92;;
45354;SDS011;31091;48.758;9.150;2024-01-16T01:11:14;8.45;;;3.55;;
45354;SDS011;31091;48.758;9.150;2024-01-16T01:13:59;5.60;;;2.80;;
45354;SDS011;31091;48.758;9.150;2024-01-16T01:16:44;8.43;;;3.58;;
45354;SDS011;31091;48.758;9.150;2024-01-16T01:19:29;10.27;;;4.28;;
45354;SDS011;31091;48.758;9.150;2024-01-16T01:22:14;7.32;;;3.33;;
45354;SDS011;31091;48.758;9.150;2024-01-16T01:25:00;7.72;;;3.60;;
45354;SDS011;31091;48.758;9.150;2024-01-16T01:27:45;10.05;;;3.88;;
45354;SDS011;31091;48.758;9.150;2024-01-16T01:30:36;6.72;;;2.83;;
45354;SDS011;31091;48.758;9.150;2024-01-16T01:33:22;8.57;;;3.28;;
45354;SDS011;31091;48.758;9.150;2024-01-16T01:36:07;8.48;;;4.38;;
45354;SDS011;31091;48.758;9.150;2024-01-16T01:38:52;9.13;;;3.50;;
45354;SDS011;31091;48.758;9.150;2024-01-16T01:41:38;7.60;;;3.63;;
45354;SDS011;31091;48.758;9.150;2024-01-16T01:44:23;9.00;;;3.83;;
45354;SDS011;31091;48.758;9.150;2024-01-16T01:47:09;9.65;;;3.53;;
45354;SDS011;31091;48.758;9.150;2024-01-16T01:49:55;7.95;;;4.30;;
45354;SDS011;31091;48.758;9.150;2024-01-16T01:52:40;8.15;;;4.38;;
45354;SDS011;31091;48.758;9.150;2024-01-16T01:55:25;7.85;;;3.63;;
45354;SDS011;31091;48.758;9.150;2024-01-16T01:58:11;7.80;;;4.07;;
45354;SDS011;31091;48.758;9.150;2024-01-16T02:00:56;5.60;;;2.90;;
45354;SDS011;31091;48.758;9.150;2024-01-16T02:03:45;7.35;;;3.55;;
45354;SDS011;31091;48.758;9.150;2024-01-16T02:06:30;8.35;;;3.95;;
45354;SDS011;31091;48.758;9.150;2024-01-16T02:09:15;6.75;;;3.65;;
45354;SDS011;31091;48.758;9.150;2024-01-16T02:12:01;7.68;;;3.50;;
45354;SDS011;31091;48.758;9.150;2024-01-16T02:14:46;6.18;;;3.45;;
45354;SDS011;31091;48.758;9.150;2024-01-16T02:17:32;9.05;;;3.33;;
45354;SDS011;31091;48.758;9.150;2024-01-16T02:20:17;7.47;;;3.25;;
45354;SDS011;31091;48.758;9.150;2024-01-16T02:23:03;9.15;;;3.78;;
45354;SDS011;31091;48.758;9.150;2024-01-16T02:25:48;9.75;;;3.13;;
45354;SDS011;31091;48.758;9.150;2024-01-16T02:28:33;8.02;;;3.63;;
45354;SDS011;31091;48.758;9.150;2024-01-16T02:31:19;7.05;;;3.65;;
45354;SDS011;31091;48.758;9.150;2024-01-16T02:34:04;8.45;;;3.15;;
45354;SDS011;31091;48.758;9.150;2024-01-16T02:36:49;9.82;;;4.20;;
45354;SDS011;31091;48.758;9.150;2024-01-16T02:39:34;6.20;;;3.33;;
45354;SDS011;31091;48.758;9.150;2024-01-16T02:42:20;6.88;;;3.25;;
45354;SDS011;31091;48.758;9.150;2024-01-16T02:45:05;7.53;;;3.25;;
45354;SDS011;31091;48.758;9.150;2024-01-16T02:47:50;5.38;;;2.67;;
45354;SDS011;31091;48.758;9.150;2024-01-16T02:50:36;6.60;;;3.40;;
45354;SDS011;31091;48.758;9.150;2024-01-16T02:53:21;16.70;;;4.93;;
45354;SDS011;31091;48.758;9.150;2024-01-16T02:56:07;6.95;;;3.55;;
45354;SDS011;31091;48.758;9.150;2024-01-16T02:58:52;6.75;;;2.88;;
45354;SDS011;31091;48.758;9.150;2024-01-16T03:01:38;6.10;;;2.80;;
45354;SDS011;31091;48.758;9.150;2024-01-16T03:04:23;8.32;;;3.97;;
45354;SDS011;31091;48.758;9.150;2024-01-16T03:07:08;8.40;;;3.67;;
45354;SDS011;31091;48.758;9.150;2024-01-16T03:09:53;7.05;;;2.80;;
45354;SDS011;31091;48.758;9.150;2024-01-16T03:12:39;6.93;;;3.13;;
45354;SDS011;31091;48.758;9.150;2024-01-16T03:15:24;9.35;;;3.92;;
45354;SDS011;31091;48.758;9.150;2024-01-16T03:18:09;7.85;;;3.60;;
45354;SDS011;31091;48.758;9.150;2024-01-16T03:20:55;7.55;;;3.38;;
45354;SDS011;31091;48.758;9.150;2024-01-16T03:23:40;6.05;;;3.20;;
45354;SDS011;31091;48.758;9.150;2024-01-16T03:26:25;5.80;;;2.72;;
45354;SDS011;31091;48.758;9.150;2024-01-16T03:29:10;12.18;;;3.70;;
45354;SDS011;31091;48.758;9.150;2024-01-16T03:31:56;8.93;;;3.75;;
45354;SDS011;31091;48.758;9.150;2024-01-16T03:34:41;6.28;;;3.13;;
45354;SDS011;31091;48.758;9.150;2024-01-16T03:37:26;9.00;;;3.85;;
45354;SDS011;31091;48.758;9.150;2024-01-16T03:40:12;4.78;;;2.75;;
45354;SDS011;31091;48.758;9.150;2024-01-16T03:42:57;6.32;;;3.10;;
45354;SDS011;31091;48.758;9.150;2024-01-16T03:45:43;8.43;;;3.20;;
45354;SDS011;31091;48.758;9.150;2024-01-16T03:48:28;6.88;;;2.97;;
45354;SDS011;31091;48.758;9.150;2024-01-16T03:51:14;6.47;;;3.35;;
45354;SDS011;31091;48.758;9.150;2024-01-16T03:54:04;7.50;;;3.13;;
45354;SDS011;31091;48.758;9.150;2024-01-16T03:56:49;8.93;;;3.83;;
45354;SDS011;31091;48.758;9.150;2024-01-16T03:59:38;6.10;;;2.97;;
45354;SDS011;31091;48.758;9.150;2024-01-16T04:02:24;7.68;;;3.60;;
45354;SDS011;31091;48.758;9.150;2024-01-16T04:05:09;6.95;;;3.33;;
45354;SDS011;31091;48.758;9.150;2024-01-16T04:07:56;10.38;;;3.83;;
45354;SDS011;31091;48.758;9.150;2024-01-16T04:13:29;5.90;;;3.03;;
45354;SDS011;31091;48.758;9.150;2024-01-16T04:16:14;6.57;;;3.20;;
45354;SDS011;31091;48.758;9.150;2024-01-16T04:19:00;9.60;;;3.42;;
45354;SDS011;31091;48.758;9.150;2024-01-16T04:21:46;7.03;;;3.10;;
45354;SDS011;31091;48.758;9.150;2024-01-16T04:24:31;6.82;;;2.97;;
45354;SDS011;31091;48.758;9.150;2024-01-16T04:27:16;7.60;;;3.70;;
45354;SDS011;31091;48.758;9.150;2024-01-16T04:30:02;6.97;;;2.90;;
45354;SDS011;31091;48.758;9.150;2024-01-16T04:32:48;7.78;;;3.80;;
45354;SDS011;31091;48.758;9.150;2024-01-16T04:35:33;6.82;;;3.53;;
45354;SDS011;31091;48.758;9.150;2024-01-16T04:38:18;8.57;;;3.80;;
45354;SDS011;31091;48.758;9.150;2024-01-16T04:41:04;7.70;;;3.67;;
45354;SDS011;31091;48.758;9.150;2024-01-16T04:43:49;7.68;;;3.70;;
45354;SDS011;31091;48.758;9.150;2024-01-16T04:46:35;6.40;;;3.15;;
45354;SDS011;31091;48.758;9.150;2024-01-16T04:49:20;7.45;;;2.83;;
45354;SDS011;31091;48.758;9.150;2024-01-16T04:52:05;10.20;;;3.58;;
45354;SDS011;31091;48.758;9.150;2024-01-16T04:54:54;8.13;;;3.55;;
45354;SDS011;31091;48.758;9.150;2024-01-16T04:57:39;7.35;;;3.45;;
45354;SDS011;31091;48.758;9.150;2024-01-16T05:00:24;10.10;;;3.42;;
45354;SDS011;31091;48.758;9.150;2024-01-16T05:03:09;8.75;;;3.13;;
45354;SDS011;31091;48.758;9.150;2024-01-16T05:05:55;7.75;;;3.63;;
45354;SDS011;31091;48.758;9.150;2024-01-16T05:08:42;11.32;;;4.15;;
45354;SDS011;31091;48.758;9.150;2024-01-16T05:11:27;5.38;;;3.35;;
45354;SDS011;31091;48.758;9.150;2024-01-16T05:14:12;4.95;;;2.60;;
45354;SDS011;31091;48.758;9.150;2024-01-16T05:16:58;5.95;;;3.00;;
45354;SDS011;31091;48.758;9.150;2024-01-16T05:19:46;9.85;;;4.13;;
45354;SDS011;31091;48.758;9.150;2024-01-16T05:22:31;7.78;;;3.60;;
45354;SDS011;31091;48.758;9.150;2024-01-16T05:25:17;6.35;;;2.88;;
45354;SDS011;31091;48.758;9.150;2024-01-16T05:28:03;9.38;;;3.13;;
45354;SDS011;31091;48.758;9.150;2024-01-16T05:30:48;7.40;;;3.25;;
45354;SDS011;31091;48.758;9.150;2024-01-16T05:33:33;6.95;;;3.22;;
45354;SDS011;31091;48.758;9.150;2024-01-16T05:36:18;14.88;;;3.83;;
45354;SDS011;31091;48.758;9.150;2024-01-16T05:39:13;5.97;;;3.10;;
45354;SDS011;31091;48.758;9.150;2024-01-16T05:42:01;12.35;;;4.22;;
45354;SDS011;31091;48.758;9.150;2024-01-16T05:44:46;7.53;;;3.08;;
45354;SDS011;31091;48.758;9.150;2024-01-16T05:47:31;10.73;;;3.15;;
45354;SDS011;31091;48.758;9.150;2024-01-16T05:50:17;8.52;;;3.53;;
45354;SDS011;31091;48.758;9.150;2024-01-16T05:53:03;7.53;;;3.38;;
45354;SDS011;31091;48.758;9.150;2024-01-16T05:55:48;8.55;;;3.15;;
45354;SDS011;31091;48.758;9.150;2024-01-16T05:58:33;7.68;;;3.90;;
45354;SDS011;31091;48.758;9.150;2024-01-16T06:01:23;7.97;;;3.38;;
45354;SDS011;31091;48.758;9.150;2024-01-16T06:04:08;5.20;;;2.80;;
45354;SDS011;31091;48.758;9.150;2024-01-16T06:06:54;9.60;;;3.47;;
45354;SDS011;31091;48.758;9.150;2024-01-16T06:09:39;7.10;;;3.30;;
45354;SDS011;31091;48.758;9.150;2024-01-16T06:12:27;6.28;;;3.08;;
45354;SDS011;31091;48.758;9.150;2024-01-16T06:15:12;12.70;;;3.72;;
45354;SDS011;31091;48.758;9.150;2024-01-16T06:17:57;8.75;;;3.53;;
45354;SDS011;31091;48.758;9.150;2024-01-16T06:20:43;9.60;;;4.00;;
45354;SDS011;31091;48.758;9.150;2024-01-16T06:23:28;8.45;;;3.67;;
45354;SDS011;31091;48.758;9.150;2024-01-16T06:26:14;11.90;;;4.00;;
45354;SDS011;31091;48.758;9.150;2024-01-16T06:28:59;13.50;;;3.65;;
45354;SDS011;31091;48.758;9.150;2024-01-16T06:31:44;8.18;;;3.80;;
45354;SDS011;31091;48.758;9.150;2024-01-16T06:34:30;11.25;;;4.43;;
45354;SDS011;31091;48.758;9.150;2024-01-16T06:37:15;6.85;;;3.17;;
45354;SDS011;31091;48.758;9.150;2024-01-16T06:40:00;9.40;;;3.80;;
45354;SDS011;31091;48.758;9.150;2024-01-16T06:42:48;13.27;;;4.72;;
45354;SDS011;31091;48.758;9.150;2024-01-16T06:45:34;12.52;;;4.93;;
45354;SDS011;31091;48.758;9.150;2024-01-16T06:48:19;8.85;;;3.60;;
45354;SDS011;31091;48.758;9.150;2024-01-16T06:51:04;11.70;;;3.60;;
45354;SDS011;31091;48.758;9.150;2024-01-16T06:53:50;12.23;;;4.28;;
45354;SDS011;31091;48.758;9.150;2024-01-16T06:56:35;8.18;;;3.55;;
45354;SDS011;31091;48.758;9.150;2024-01-16T06:59:21;6.53;;;3.42;;
45354;SDS011;31091;48.758;9.150;2024-01-16T07:02:06;7.68;;;3.78;;
45354;SDS011;31091;48.758;9.150;2024-01-16T07:04:53;9.88;;;3.47;;
45354;SDS011;31091;48.758;9.150;2024-01-16T07:07:38;14.38;;;3.90;;
45354;SDS011;31091;48.758;9.150;2024-01-16T07:10:23;8.88;;;3.78;;
45354;SDS011;31091;48.758;9.150;2024-01-16T07:13:09;5.82;;;3.00;;
45354;SDS011;31091;48.758;9.150;2024-01-16T07:15:54;8.02;;;3.17;;
45354;SDS011;31091;48.758;9.150;2024-01-16T07:18:40;6.70;;;2.78;;
45354;SDS011;31091;48.758;9.150;2024-01-16T07:21:25;7.28;;;3.40;;
45354;SDS011;31091;48.758;9.150;2024-01-16T07:24:10;4.97;;;2.83;;
45354;SDS011;31091;48.758;9.150;2024-01-16T07:26:57;9.98;;;3.58;;
45354;SDS011;31091;48.758;9.150;2024-01-16T07:29:43;7.28;;;3.42;;
45354;SDS011;31091;48.758;9.150;2024-01-16T07:32:28;9.77;;;3.28;;
45354;SDS011;31091;48.758;9.150;2024-01-16T07:35:13;8.43;;;3.40;;
45354;SDS011;31091;48.758;9.150;2024-01-16T07:37:59;7.10;;;3.60;;
45354;SDS011;31091;48.758;9.150;2024-01-16T07:40:44;7.65;;;3.63;;
45354;SDS011;31091;48.758;9.150;2024-01-16T07:43:29;9.95;;;3.30;;
45354;SDS011;31091;48.758;9.150;2024-01-16T07:46:18;8.27;;;3.35;;
45354;SDS011;31091;48.758;9.150;2024-01-16T07:49:03;5.82;;;2.97;;
45354;SDS011;31091;48.758;9.150;2024-01-16T07:51:48;5.20;;;2.88;;
45354;SDS011;31091;48.758;9.150;2024-01-16T07:54:33;6.82;;;3.20;;
45354;SDS011;31091;48.758;9.150;2024-01-16T07:57:18;12.18;;;3.40;;
45354;SDS011;31091;48.758;9.150;2024-01-16T08:00:04;7.47;;;3.58;;
45354;SDS011;31091;48.758;9.150;2024-01-16T08:02:50;9.13;;;3.45;;
45354;SDS011;31091;48.758;9.150;2024-01-16T08:05:36;8.20;;;3.08;;
45354;SDS011;31091;48.758;9.150;2024-01-16T08:08:21;8.18;;;3.22;;
45354;SDS011;31091;48.758;9.150;2024-01-16T08:11:06;10.68;;;3.55;;
45354;SDS011;31091;48.758;9.150;2024-01-16T08:13:52;10.32;;;3.88;;
45354;SDS011;31091;48.758;9.150;2024-01-16T08:16:37;8.98;;;4.20;;
45354;SDS011;31091;48.758;9.150;2024-01-16T08:19:22;5.93;;;3.05;;
45354;SDS011;31091;48.758;9.150;2024-01-16T08:22:07;7.45;;;3.20;;
45354;SDS011;31091;48.758;9.150;2024-01-16T08:24:53;7.45;;;2.80;;
45354;SDS011;31091;48.758;9.150;2024-01-16T08:27:38;7.35;;;2.90;;
45354;SDS011;31091;48.758;9.150;2024-01-16T08:30:24;9.18;;;2.97;;
45354;SDS011;31091;48.758;9.150;2024-01-16T08:33:10;7.82;;;3.25;;
45354;SDS011;31091;48.758;9.150;2024-01-16T08:35:55;8.80;;;3.20;;
45354;SDS011;31091;48.758;9.150;2024-01-16T08:38:40;7.10;;;3.40;;
45354;SDS011;31091;48.758;9.150;2024-01-16T08:41:26;8.85;;;3.95;;
45354;SDS011;31091;48.758;9.150;2024-01-16T08:44:11;7.43;;;3.75;;
45354;SDS011;31091;48.758;9.150;2024-01-16T08:46:56;9.50;;;3.05;;
45354;SDS011;31091;48.758;9.150;2024-01-16T08:49:42;12.57;;;3.25;;
45354;SDS011;31091;48.758;9.150;2024-01-16T08:52:28;7.25;;;3.53;;
45354;SDS011;31091;48.758;9.150;2024-01-16T08:55:14;6.43;;;3.40;;
45354;SDS011;31091;48.758;9.150;2024-01-16T08:57:59;7.53;;;2.83;;
45354;SDS011;31091;48.758;9.150;2024-01-16T09:00:44;5.97;;;2.72;;
45354;SDS011;31091;48.758;9.150;2024-01-16T09:03:29;9.52;;;2.97;;
45354;SDS011;31091;48.758;9.150;2024-01-16T09:06:14;5.85;;;2.60;;
45354;SDS011;31091;48.758;9.150;2024-01-16T09:09:00;5.60;;;3.00;;
45354;SDS011;31091;48.758;9.150;2024-01-16T09:11:45;5.95;;;2.70;;
45354;SDS011;31091;48.758;9.150;2024-01-16T09:14:30;6.85;;;3.28;;
45354;SDS011;31091;48.758;9.150;2024-01-16T09:17:15;7.10;;;2.60;;
45354;SDS011;31091;48.758;9.150;2024-01-16T09:20:01;6.05;;;2.30;;
45354;SDS011;31091;48.758;9.150;2024-01-16T09:22:46;8.80;;;3.30;;
45354;SDS011;31091;48.758;9.150;2024-01-16T09:25:31;6.57;;;3.25;;
45354;SDS011;31091;48.758;9.150;2024-01-16T09:28:16;7.70;;;2.88;;
45354;SDS011;31091;48.758;9.150;2024-01-16T09:31:01;29.58;;;3.30;;
45354;SDS011;31091;48.758;9.150;2024-01-16T09:33:47;7.25;;;2.90;;
45354;SDS011;31091;48.758;9.150;2024-01-16T09:36:32;8.27;;;2.97;;
45354;SDS011;31091;48.758;9.150;2024-01-16T09:39:17;6.00;;;2.55;;
45354;SDS011;31091;48.758;9.150;2024-01-16T09:42:03;7.03;;;2.85;;
45354;SDS011;31091;48.758;9.150;2024-01-16T09:44:48;4.30;;;2.40;;
45354;SDS011;31091;48.758;9.150;2024-01-16T09:47:34;7.15;;;2.78;;
45354;SDS011;31091;48.758;9.150;2024-01-16T09:50:19;6.57;;;2.97;;
45354;SDS011;31091;48.758;9.150;2024-01-16T09:53:04;5.43;;;2.28;;
45354;SDS011;31091;48.758;9.150;2024-01-16T09:55:50;6.88;;;2.80;;
45354;SDS011;31091;48.758;9.150;2024-01-16T09:58:37;5.68;;;2.90;;
45354;SDS011;31091;48.758;9.150;2024-01-16T10:01:23;6.07;;;2.63;;
45354;SDS011;31091;48.758;9.150;2024-01-16T10:04:08;5.72;;;2.38;;
45354;SDS011;31091;48.758;9.150;2024-01-16T10:06:54;6.40;;;3.05;;
45354;SDS011;31091;48.758;9.150;2024-01-16T10:09:39;5.57;;;2.38;;
45354;SDS011;31091;48.758;9.150;2024-01-16T10:12:24;4.55;;;2.15;;
45354;SDS011;31091;48.758;9.150;2024-01-16T10:15:10;5.47;;;2.65;;
45354;SDS011;31091;48.758;9.150;2024-01-16T10:17:56;6.65;;;2.58;;
45354;SDS011;31091;48.758;9.150;2024-01-16T10:20:41;3.72;;;1.90;;
45354;SDS011;31091;48.758;9.150;2024-01-16T10:23:27;9.50;;;3.00;;
45354;SDS011;31091;48.758;9.150;2024-01-16T10:26:12;7.47;;;3.00;;
45354;SDS011;31091;48.758;9.150;2024-01-16T10:28:58;5.20;;;2.65;;
45354;SDS011;31091;48.758;9.150;2024-01-16T10:31:48;5.50;;;2.42;;
45354;SDS011;31091;48.758;9.150;2024-01-16T10:34:34;7.03;;;2.20;;
45354;SDS011;31091;48.758;9.150;2024-01-16T10:37:19;7.88;;;2.58;;
45354;SDS011;31091;48.758;9.150;2024-01-16T10:40:04;6.15;;;3.10;;
45354;SDS011;31091;48.758;9.150;2024-01-16T10:43:01;7.53;;;3.00;;
45354;SDS011;31091;48.758;9.150;2024-01-16T10:45:46;6.57;;;2.72;;
45354;SDS011;31091;48.758;9.150;2024-01-16T10:48:31;8.05;;;2.90;;
45354;SDS011;31091;48.758;9.150;2024-01-16T10:51:17;8.57;;;3.15;;
45354;SDS011;31091;48.758;9.150;2024-01-16T10:54:03;9.00;;;3.28;;
45354;SDS011;31091;48.758;9.150;2024-01-16T10:56:50;6.00;;;2.63;;
45354;SDS011;31091;48.758;9.150;2024-01-16T10:59:39;12.63;;;4.00;;
45354;SDS011;31091;48.758;9.150;2024-01-16T11:02:28;7.50;;;2.88;;
45354;SDS011;31091;48.758;9.150;2024-01-16T11:05:17;5.30;;;2.85;;
45354;SDS011;31091;48.758;9.150;2024-01-16T11:08:03;6.25;;;2.50;;
45354;SDS011;31091;48.758;9.150;2024-01-16T11:10:50;8.25;;;2.40;;
45354;SDS011;31091;48.758;9.150;2024-01-16T11:13:36;5.55;;;2.17;;
45354;SDS011;31091;48.758;9.150;2024-01-16T11:16:21;8.63;;;2.92;;
45354;SDS011;31091;48.758;9.150;2024-01-16T11:19:08;7.68;;;2.80;;
45354;SDS011;31091;48.758;9.150;2024-01-16T11:21:53;7.15;;;2.72;;
45354;SDS011;31091;48.758;9.150;2024-01-16T11:24:39;6.55;;;2.70;;
45354;SDS011;31091;48.758;9.150;2024-01-16T11:27:24;6.05;;;1.98;;
45354;SDS011;31091;48.758;9.150;2024-01-16T11:30:10;5.38;;;2.33;;
45354;SDS011;31091;48.758;9.150;2024-01-16T11:32:56;8.55;;;2.22;;
45354;SDS011;31091;48.758;9.150;2024-01-16T11:35:41;4.03;;;2.30;;
45354;SDS011;31091;48.758;9.150;2024-01-16T11:38:27;11.23;;;2.92;;
45354;SDS011;31091;48.758;9.150;2024-01-16T11:41:37;10.20;;;2.83;;
45354;SDS011;31091;48.758;9.150;2024-01-16T11:47:24;5.57;;;1.88;;
45354;SDS011;31091;48.758;9.150;2024-01-16T11:50:09;4.00;;;1.98;;
45354;SDS011;31091;48.758;9.150;2024-01-16T11:52:55;7.10;;;2.22;;
45354;SDS011;31091;48.758;9.150;2024-01-16T11:56:02;5.97;;;2.05;;
45354;SDS011;31091;48.758;9.150;2024-01-16T11:59:01;12.05;;;2.42;;
45354;SDS011;31091;48.758;9.150;2024-01-16T12:01:54;6.18;;;3.38;;
45354;SDS011;31091;48.758;9.150;2024-01-16T12:04:42;9.68;;;3.15;;
45354;SDS011;31091;48.758;9.150;2024-01-16T12:07:27;6.85;;;2.95;;
45354;SDS011;31091;48.758;9.150;2024-01-16T12:10:13;7.97;;;2.72;;
45354;SDS011;31091;48.758;9.150;2024-01-16T12:12:58;6.82;;;2.25;;
45354;SDS011;31091;48.758;9.150;2024-01-16T12:15:44;8.88;;;3.28;;
45354;SDS011;31091;48.758;9.150;2024-01-16T12:18:31;3.45;;;2.33;;
45354;SDS011;31091;48.758;9.150;2024-01-16T12:21:17;9.55;;;1.92;;
45354;SDS011;31091;48.758;9.150;2024-01-16T12:24:05;4.82;;;2.28;;
45354;SDS011;31091;48.758;9.150;2024-01-16T12:26:50;7.72;;;3.08;;
45354;SDS011;31091;48.758;9.150;2024-01-16T12:29:35;9.38;;;3.05;;
45354;SDS011;31091;48.758;9.150;2024-01-16T12:32:21;4.85;;;1.98;;
45354;SDS011;31091;48.758;9.150;2024-01-16T12:35:07;7.22;;;2.17;;
45354;SDS011;31091;48.758;9.150;2024-01-16T12:37:59;3.92;;;1.90;;
45354;SDS011;31091;48.758;9.150;2024-01-16T12:40:46;4.13;;;1.70;;
45354;SDS011;31091;48.758;9.150;2024-01-16T12:43:32;3.33;;;1.80;;
45354;SDS011;31091;48.758;9.150;2024-01-16T12:46:18;7.20;;;1.95;;
45354;SDS011;31091;48.758;9.150;2024-01-16T12:49:04;3.78;;;1.73;;
45354;SDS011;31091;48.758;9.150;2024-01-16T12:51:52;3.33;;;1.50;;
45354;SDS011;31091;48.758;9.150;2024-01-16T12:55:00;5.53;;;2.00;;
45354;SDS011;31091;48.758;9.150;2024-01-16T13:00:57;7.97;;;1.80;;
45354;SDS011;31091;48.758;9.150;2024-01-16T13:04:06;5.97;;;2.58;;
45354;SDS011;31091;48.758;9.150;2024-01-16T13:06:57;5.80;;;2.22;;
45354;SDS011;31091;48.758;9.150;2024-01-16T13:09:45;3.95;;;2.13;;
45354;SDS011;31091;48.758;9.150;2024-01-16T13:12:30;8.32;;;2.33;;
45354;SDS011;31091;48.758;9.150;2024-01-16T13:15:18;4.57;;;1.98;;
45354;SDS011;31091;48.758;9.150;2024-01-16T13:18:04;4.53;;;2.40;;
45354;SDS011;31091;48.758;9.150;2024-01-16T13:20:49;7.78;;;2.40;;
45354;SDS011;31091;48.758;9.150;2024-01-16T13:23:35;5.13;;;1.80;;
45354;SDS011;31091;48.758;9.150;2024-01-16T13:26:20;4.68;;;1.83;;
45354;SDS011;31091;48.758;9.150;2024-01-16T13:29:05;4.95;;;1.90;;
45354;SDS011;31091;48.758;9.150;2024-01-16T13:31:54;8.05;;;2.58;;
45354;SDS011;31091;48.758;9.150;2024-01-16T13:34:40;4.00;;;2.03;;
45354;SDS011;31091;48.758;9.150;2024-01-16T13:37:31;7.28;;;2.90;;
45354;SDS011;31091;48.758;9.150;2024-01-16T13:40:17;8.05;;;1.98;;
45354;SDS011;31091;48.758;9.150;2024-01-16T13:43:04;8.20;;;2.78;;
45354;SDS011;31091;48.758;9.150;2024-01-16T13:45:49;6.47;;;2.70;;
45354;SDS011;31091;48.758;9.150;2024-01-16T13:48:34;5.45;;;2.70;;
45354;SDS011;31091;48.758;9.150;2024-01-16T13:51:20;7.32;;;1.95;;
45354;SDS011;31091;48.758;9.150;2024-01-16T13:54:06;19.25;;;2.35;;
45354;SDS011;31091;48.758;9.150;2024-01-16T13:56:51;4.65;;;2.10;;
45354;SDS011;31091;48.758;9.150;2024-01-16T13:59:39;6.65;;;2.72;;
45354;SDS011;31091;48.758;9.150;2024-01-16T14:02:25;6.90;;;2.13;;
45354;SDS011;31091;48.758;9.150;2024-01-16T14:05:11;4.03;;;1.77;;
45354;SDS011;31091;48.758;9.150;2024-01-16T14:07:57;7.78;;;2.08;;
45354;SDS011;31091;48.758;9.150;2024-01-16T14:10:44;5.53;;;2.05;;
45354;SDS011;31091;48.758;9.150;2024-01-16T14:13:29;6.13;;;2.28;;
45354;SDS011;31091;48.758;9.150;2024-01-16T14:16:15;4.03;;;1.80;;
45354;SDS011;31091;48.758;9.150;2024-01-16T14:19:00;7.05;;;2.22;;
45354;SDS011;31091;48.758;9.150;2024-01-16T14:21:45;8.82;;;2.28;;
45354;SDS011;31091;48.758;9.150;2024-01-16T14:24:32;6.75;;;1.70;;
45354;SDS011;31091;48.758;9.150;2024-01-16T14:27:17;6.82;;;2.33;;
45354;SDS011;31091;48.758;9.150;2024-01-16T14:30:02;5.25;;;2.75;;
45354;SDS011;31091;48.758;9.150;2024-01-16T14:32:48;4.90;;;1.90;;
45354;SDS011;31091;48.758;9.150;2024-01-16T14:35:33;8.73;;;2.50;;
45354;SDS011;31091;48.758;9.150;2024-01-16T14:38:18;6.80;;;3.10;;
45354;SDS011;31091;48.758;9.150;2024-01-16T14:41:04;9.20;;;2.45;;
45354;SDS011;31091;48.758;9.150;2024-01-16T14:43:49;8.98;;;2.17;;
45354;SDS011;31091;48.758;9.150;2024-01-16T14:46:40;7.07;;;2.97;;
45354;SDS011;31091;48.758;9.150;2024-01-16T14:49:25;7.68;;;2.83;;
45354;SDS011;31091;48.758;9.150;2024-01-16T14:52:16;8.45;;;2.88;;
45354;SDS011;31091;48.758;9.150;2024-01-16T14:55:03;6.80;;;2.45;;
45354;SDS011;31091;48.758;9.150;2024-01-16T14:57:54;14.27;;;2.28;;
45354;SDS011;31091;48.758;9.150;2024-01-16T15:00:45;7.22;;;2.75;;
45354;SDS011;31091;48.758;9.150;2024-01-16T15:03:33;10.15;;;2.58;;
45354;SDS011;31091;48.758;9.150;2024-01-16T15:06:18;4.70;;;2.15;;
45354;SDS011;31091;48.758;9.150;2024-01-16T15:09:03;9.20;;;3.05;;
45354;SDS011;31091;48.758;9.150;2024-01-16T15:11:49;9.88;;;3.50;;
45354;SDS011;31091;48.758;9.150;2024-01-16T15:14:34;11.93;;;3.22;;
45354;SDS011;31091;48.758;9.150;2024-01-16T15:17:20;6.40;;;2.58;;
45354;SDS011;31091;48.758;9.150;2024-01-16T15:20:05;7.15;;;2.78;;
45354;SDS011;31091;48.758;9.150;2024-01-16T15:22:53;7.85;;;2.88;;
45354;SDS011;31091;48.758;9.150;2024-01-16T15:25:38;8.38;;;3.15;;
45354;SDS011;31091;48.758;9.150;2024-01-16T15:28:23;5.53;;;2.45;;
45354;SDS011;31091;48.758;9.150;2024-01-16T15:31:09;5.80;;;2.50;;
45354;SDS011;31091;48.758;9.150;2024-01-16T15:33:54;8.57;;;2.88;;
45354;SDS011;31091;48.758;9.150;2024-01-16T15:36:40;6.55;;;1.98;;
45354;SDS011;31091;48.758;9.150;2024-01-16T15:39:25;6.78;;;2.40;;
45354;SDS011;31091;48.758;9.150;2024-01-16T15:42:10;8.23;;;2.10;;
45354;SDS011;31091;48.758;9.150;2024-01-16T15:44:55;13.18;;;2.47;;
45354;SDS011;31091;48.758;9.150;2024-01-16T15:47:40;7.70;;;2.63;;
45354;SDS011;31091;48.758;9.150;2024-01-16T15:50:26;5.88;;;2.33;;
45354;SDS011;31091;48.758;9.150;2024-01-16T15:53:13;20.27;;;4.55;;
45354;SDS011;31091;48.758;9.150;2024-01-16T15:56:00;16.50;;;3.38;;
45354;SDS011;31091;48.758;9.150;2024-01-16T15:58:45;7.93;;;2.70;;
45354;SDS011;31091;48.758;9.150;2024-01-16T16:01:30;13.13;;;3.63;;
45354;SDS011;31091;48.758;9.150;2024-01-16T16:04:17;10.85;;;3.78;;
45354;SDS011;31091;48.758;9.150;2024-01-16T16:07:02;16.38;;;3.50;;
45354;SDS011;31091;48.758;9.150;2024-01-16T16:09:48;8.48;;;3.22;;
45354;SDS011;31091;48.758;9.150;2024-01-16T16:12:33;8.98;;;2.90;;
45354;SDS011;31091;48.758;9.150;2024-01-16T16:15:18;10.50;;;3.30;;
45354;SDS011;31091;48.758;9.150;2024-01-16T16:18:04;9.88;;;3.15;;
45354;SDS011;31091;48.758;9.150;2024-01-16T16:20:49;10.30;;;3.42;;
45354;SDS011;31091;48.758;9.150;2024-01-16T16:23:34;10.65;;;3.40;;
45354;SDS011;31091;48.758;9.150;2024-01-16T16:26:28;6.72;;;2.85;;
45354;SDS011;31091;48.758;9.150;2024-01-16T16:29:14;8.40;;;3.85;;
45354;SDS011;31091;48.758;9.150;2024-01-16T16:31:59;9.88;;;3.15;;
45354;SDS011;31091;48.758;9.150;2024-01-16T16:34:45;10.45;;;3.58;;
45354;SDS011;31091;48.758;9.150;2024-01-16T16:37:30;7.75;;;3.28;;
45354;SDS011;31091;48.758;9.150;2024-01-16T16:40:15;8.15;;;3.53;;
45354;SDS011;31091;48.758;9.150;2024-01-16T16:43:01;9.77;;;2.95;;
45354;SDS011;31091;48.758;9.150;2024-01-16T16:45:46;9.00;;;4.13;;
45354;SDS011;31091;48.758;9.150;2024-01-16T16:48:33;8.43;;;3.50;;